Chesterton, Indiana
Current Conditions -  °F | °C
As of 7:56 PM on Friday 28 Nov 2014 (Local Time) from KVPZ Reporting Station
Clear Clear  
Wind Chill: 20°   Ceiling: Unl
Heat Index: 30°   Visibility: 10mi
Dew Point: 22°   Wind: 13mph
Humidity: 72%   Direction: 150°SSE
Pressure: 29.99"   Gusts: NA
Location:  41.61°N, 87.06°W
Report Text: KVPZ 290156Z AUTO 15011KT 10SM CLR M01/M06 A2999 RMK AO2 SLP164 T10111056 TSNO
Loading
Personal Weather Stations






























Interactive Weather Map New forecast layout! Learn more

10-Day Weather Forecast

Advertisements
Track Severe Weather on mobile